Time;durP1;ratioP1;P1;durP2;ratioP2;P2;SDS_P1;SDS_P2;PMS_P1;PMS_P2;Temp;Humidity;BMP_temperature;BMP_pressure;BME280_temperature;BME280_humidity;BME280_pressure;Samples;Min_cycle;Max_cycle;Signal;HPM_P1;HPM_P2
2022/09/29 00:14:47;;;;;;;;;;;;;;;22.67;44.83;97662.09;4488051;31;36006;-93
2022/09/29 00:17:15;;;;;;;;;;;;;;;22.73;44.65;97669.66;4474425;32;33517;-95
2022/09/29 00:19:42;;;;;;;;;;;;;;;22.81;44.44;97672.69;4483041;32;34355;-83
2022/09/29 00:22:09;;;;;;;;;;;;;;;22.79;44.46;97674.56;4490750;32;34304;-95
2022/09/29 00:24:36;;;;;;;;;;;;;;;22.71;44.56;97660.97;4478127;32;34326;-93
2022/09/29 00:27:04;;;;;;;;;;;;;;;22.58;44.84;97660.87;4488744;32;33537;-84
2022/09/29 00:29:31;;;;;;;;;;;;;;;22.69;44.43;97668.16;4488484;32;34983;-83
2022/09/29 00:31:58;;;;;;;;;;;;;;;22.73;44.25;97659.09;4487283;32;35156;-94
2022/09/29 00:34:25;;;;;;;;;;;;;;;22.72;44.22;97667.94;4485814;32;34909;-84
2022/09/29 00:36:53;;;;;;;;;;;;;;;22.75;43.94;97662.47;4482810;32;34479;-83
2022/09/29 00:39:20;;;;;;;;;;;;;;;22.65;44.15;97658.69;4474589;32;34233;-95
2022/09/29 00:41:47;;;;;;;;;;;;;;;22.73;43.91;97663.50;4469578;32;34379;-84
2022/09/29 00:44:14;;;;;;;;;;;;;;;22.76;43.67;97656.25;4472063;32;35195;-84
2022/09/29 00:46:43;;;;;;;;;;;;;;;22.76;43.50;97647.47;4477771;32;34206;-95
2022/09/29 00:49:24;;;;;;;;;;;;;;;22.46;43.86;97644.88;4470237;32;34203;-92
2022/09/29 00:51:53;;;;;;;;;;;;;;;22.20;44.39;97659.63;4473620;32;33922;-94
2022/09/29 00:54:21;;;;;;;;;;;;;;;22.19;44.45;97663.19;4471893;32;34641;-90
2022/09/29 00:56:48;;;;;;;;;;;;;;;22.24;44.30;97655.88;4473947;32;34119;-95
2022/09/29 00:59:17;;;;;;;;;;;;;;;22.28;44.18;97667.97;4478186;32;33693;-84
2022/09/29 01:01:44;;;;;;;;;;;;;;;22.37;44.17;97677.13;4469571;32;34640;-95
2022/09/29 01:04:13;;;;;;;;;;;;;;;22.13;45.04;97674.94;4473913;32;34176;-87
2022/09/29 01:06:50;;;;;;;;;;;;;;;21.86;45.77;97667.69;4482031;32;33665;-83
2022/09/29 01:09:22;;;;;;;;;;;;;;;22.00;45.64;97658.09;4459667;32;35251;-86
2022/09/29 01:11:53;;;;;;;;;;;;;;;22.26;45.00;97652.19;4457420;32;34211;-89
2022/09/29 01:14:21;;;;;;;;;;;;;;;22.45;44.49;97641.41;4471655;32;34401;-86
2022/09/29 01:16:48;;;;;;;;;;;;;;;22.57;44.12;97638.00;4452069;32;33773;-85
2022/09/29 01:19:16;;;;;;;;;;;;;;;22.33;44.44;97650.91;4471953;32;34932;-84
2022/09/29 01:21:49;;;;;;;;;;;;;;;22.38;44.33;97647.13;4457209;32;34275;-83
2022/09/29 01:24:20;;;;;;;;;;;;;;;22.42;44.31;97651.28;4460620;32;35435;-83
2022/09/29 01:26:54;;;;;;;;;;;;;;;22.39;44.24;97654.09;4471021;32;33778;-84
2022/09/29 01:29:44;;;;;;;;;;;;;;;22.61;43.45;97638.69;4457022;32;34360;-84
2022/09/29 01:32:19;;;;;;;;;;;;;;;22.47;43.64;97644.81;4459297;32;35325;-83
2022/09/29 01:34:59;;;;;;;;;;;;;;;22.42;43.61;97641.56;4472559;32;33988;-95
2022/09/29 01:37:30;;;;;;;;;;;;;;;22.33;43.69;97648.25;4457687;32;33582;-87
2022/09/29 01:40:14;;;;;;;;;;;;;;;22.47;43.35;97638.69;4456581;32;34646;-84
2022/09/29 01:42:51;;;;;;;;;;;;;;;22.56;43.00;97624.91;4469564;32;35096;-94
2022/09/29 01:45:19;;;;;;;;;;;;;;;22.31;43.42;97629.03;4462198;32;35295;-88
2022/09/29 01:47:47;;;;;;;;;;;;;;;21.96;44.14;97635.47;4486296;32;33767;-95
2022/09/29 01:50:19;;;;;;;;;;;;;;;22.33;43.54;97626.28;4469898;32;34199;-82
2022/09/29 01:52:50;;;;;;;;;;;;;;;22.41;43.24;97620.56;4470535;32;34495;-83
2022/09/29 01:55:18;;;;;;;;;;;;;;;22.36;43.37;97626.12;4458253;32;34412;-90
2022/09/29 01:57:50;;;;;;;;;;;;;;;22.35;43.41;97619.16;4445333;32;33571;-83
2022/09/29 02:00:17;;;;;;;;;;;;;;;22.28;43.58;97613.38;4456391;32;33889;-95
2022/09/29 02:02:46;;;;;;;;;;;;;;;22.18;43.91;97622.75;4464560;32;34555;-93
2022/09/29 02:05:15;;;;;;;;;;;;;;;22.31;43.76;97615.84;4459000;32;35051;-83
2022/09/29 02:07:43;;;;;;;;;;;;;;;22.25;43.93;97617.97;4465240;32;33341;-95
2022/09/29 02:10:29;;;;;;;;;;;;;;;22.37;43.73;97622.53;4463746;32;34223;-82
2022/09/29 02:12:57;;;;;;;;;;;;;;;22.42;43.64;97616.97;4459036;32;34134;-89
2022/09/29 02:15:26;;;;;;;;;;;;;;;22.46;43.60;97613.19;4480064;32;33949;-84
2022/09/29 02:17:53;;;;;;;;;;;;;;;22.43;43.71;97618.69;4462562;32;33388;-86
2022/09/29 02:20:21;;;;;;;;;;;;;;;22.48;43.71;97617.44;4464404;32;34955;-83
2022/09/29 02:22:48;;;;;;;;;;;;;;;22.43;43.85;97619.53;4477633;32;34386;-83
2022/09/29 02:25:16;;;;;;;;;;;;;;;22.52;43.74;97615.47;4480714;32;34573;-85
2022/09/29 02:27:43;;;;;;;;;;;;;;;22.50;43.79;97618.22;4461200;32;33423;-84
2022/09/29 02:30:11;;;;;;;;;;;;;;;22.53;43.75;97617.16;4469531;32;34948;-84
2022/09/29 02:32:38;;;;;;;;;;;;;;;22.48;43.98;97627.16;4468791;32;34307;-89
2022/09/29 02:35:06;;;;;;;;;;;;;;;22.49;44.03;97639.44;4454690;32;34716;-84
2022/09/29 02:37:39;;;;;;;;;;;;;;;22.20;44.77;97649.94;4455187;32;34377;-94
2022/09/29 02:40:09;;;;;;;;;;;;;;;22.06;45.31;97655.97;4471250;32;34428;-83
2022/09/29 02:42:42;;;;;;;;;;;;;;;22.22;45.13;97653.31;4456874;32;34022;-94
2022/09/29 02:45:38;;;;;;;;;;;;;;;22.29;45.11;97654.66;4457635;32;35328;-85
2022/09/29 02:48:25;;;;;;;;;;;;;;;22.45;44.88;97664.31;4451905;32;33537;-84
2022/09/29 02:50:58;;;;;;;;;;;;;;;22.37;45.08;97661.28;4469017;32;33987;-84
2022/09/29 02:53:28;;;;;;;;;;;;;;;22.41;45.19;97662.81;4468880;32;34118;-84
2022/09/29 02:56:11;;;;;;;;;;;;;;;22.43;45.16;97664.41;4468007;32;34542;-87
2022/09/29 02:58:45;;;;;;;;;;;;;;;22.42;45.23;97662.69;4464677;32;33834;-84
2022/09/29 03:01:15;;;;;;;;;;;;;;;22.43;45.14;97663.56;4463165;32;33777;-94
2022/09/29 03:03:43;;;;;;;;;;;;;;;22.65;44.76;97653.41;4477934;32;35089;-89
2022/09/29 03:06:10;;;;;;;;;;;;;;;22.56;44.86;97648.69;4469815;32;34524;-84
2022/09/29 03:08:37;;;;;;;;;;;;;;;22.40;45.39;97659.31;4469453;32;33656;-84
2022/09/29 03:11:05;;;;;;;;;;;;;;;22.45;45.30;97651.13;4471145;32;34321;-84
2022/09/29 03:13:32;;;;;;;;;;;;;;;22.70;44.84;97648.72;4469614;32;34469;-95
2022/09/29 03:15:59;;;;;;;;;;;;;;;22.73;44.68;97643.25;4470002;32;35068;-94
2022/09/29 03:18:27;;;;;;;;;;;;;;;22.91;44.17;97646.56;4472924;32;33755;-84
2022/09/29 03:20:54;;;;;;;;;;;;;;;22.78;44.31;97651.72;4472308;32;34118;-88
2022/09/29 03:23:21;;;;;;;;;;;;;;;22.78;44.46;97651.72;4471058;32;34127;-95
2022/09/29 03:25:49;;;;;;;;;;;;;;;22.70;44.78;97650.50;4468489;32;34612;-85
2022/09/29 03:28:16;;;;;;;;;;;;;;;22.11;46.14;97650.41;4469449;32;33631;-85
2022/09/29 03:30:44;;;;;;;;;;;;;;;22.23;45.72;97644.44;4468667;32;34366;-92
2022/09/29 03:33:11;;;;;;;;;;;;;;;22.29;45.60;97648.53;4469797;32;34459;-85
2022/09/29 03:35:38;;;;;;;;;;;;;;;22.18;45.76;97638.59;4468800;32;34222;-84
2022/09/29 03:38:10;;;;;;;;;;;;;;;21.56;47.51;97640.41;4468325;32;33240;-90
2022/09/29 03:40:37;;;;;;;;;;;;;;;22.17;45.93;97629.00;4468903;32;34153;-86
2022/09/29 03:43:05;;;;;;;;;;;;;;;22.22;45.59;97619.00;4468871;32;32913;-85
2022/09/29 03:45:33;;;;;;;;;;;;;;;22.36;45.31;97617.34;4475432;32;34335;-96
2022/09/29 03:48:00;;;;;;;;;;;;;;;21.74;46.89;97622.66;4483792;32;33818;-95
2022/09/29 03:50:28;;;;;;;;;;;;;;;22.08;46.06;97622.41;4476860;32;34156;-96
2022/09/29 03:52:57;;;;;;;;;;;;;;;21.34;47.99;97611.72;4478769;32;33852;-95
2022/09/29 03:55:24;;;;;;;;;;;;;;;20.39;50.54;97607.09;4485350;32;35149;-95
2022/09/29 03:57:51;;;;;;;;;;;;;;;21.71;47.15;97605.25;4475729;32;33416;-90
2022/09/29 04:00:18;;;;;;;;;;;;;;;21.10;48.88;97613.88;4488391;32;33773;-85
2022/09/29 04:02:46;;;;;;;;;;;;;;;21.70;47.31;97613.22;4464072;32;35260;-84
2022/09/29 04:05:13;;;;;;;;;;;;;;;21.83;46.99;97607.16;4474506;32;36552;-83
2022/09/29 04:07:41;;;;;;;;;;;;;;;22.21;46.29;97601.47;4481061;32;33897;-85
2022/09/29 04:10:08;;;;;;;;;;;;;;;21.83;47.07;97606.31;4489238;32;34333;-95
2022/09/29 04:12:36;;;;;;;;;;;;;;;22.15;46.34;97603.62;4484436;32;34457;-84
2022/09/29 04:15:03;;;;;;;;;;;;;;;22.06;46.50;97602.34;4484335;32;34597;-96
2022/09/29 04:17:30;;;;;;;;;;;;;;;22.40;45.77;97600.37;4472009;32;33469;-95
2022/09/29 04:19:57;;;;;;;;;;;;;;;22.37;45.92;97603.19;4490546;32;34283;-88
2022/09/29 04:22:25;;;;;;;;;;;;;;;22.57;45.38;97601.03;4475036;32;34473;-85
2022/09/29 04:24:52;;;;;;;;;;;;;;;22.61;45.30;97603.50;4475020;32;34366;-84
2022/09/29 04:27:19;;;;;;;;;;;;;;;22.75;45.08;97595.59;4483580;32;34504;-84
2022/09/29 04:29:46;;;;;;;;;;;;;;;22.75;45.03;97599.06;4480782;32;35670;-84
2022/09/29 04:32:14;;;;;;;;;;;;;;;22.86;44.74;97600.22;4470266;32;34067;-84
2022/09/29 04:34:41;;;;;;;;;;;;;;;22.68;44.99;97592.47;4487486;32;34215;-84
2022/09/29 04:37:12;;;;;;;;;;;;;;;22.76;44.82;97595.47;4487492;32;32842;-85
2022/09/29 04:39:39;;;;;;;;;;;;;;;22.80;44.77;97602.25;4474446;32;35124;-95
2022/09/29 04:42:06;;;;;;;;;;;;;;;22.86;44.66;97600.22;4479150;32;35387;-85
2022/09/29 04:44:34;;;;;;;;;;;;;;;22.84;44.69;97602.94;4481150;32;34509;-84
2022/09/29 04:47:01;;;;;;;;;;;;;;;22.83;44.75;97603.88;4472940;32;31982;-83
2022/09/29 04:49:28;;;;;;;;;;;;;;;22.67;44.93;97606.63;4467310;32;33845;-84
2022/09/29 04:51:56;;;;;;;;;;;;;;;21.40;48.02;97607.87;4468908;32;34862;-85
2022/09/29 04:54:23;;;;;;;;;;;;;;;21.45;48.11;97608.50;4468567;32;35287;-83
2022/09/29 04:56:50;;;;;;;;;;;;;;;21.18;48.79;97616.13;4478288;32;33633;-83
2022/09/29 04:59:17;;;;;;;;;;;;;;;21.85;47.15;97615.81;4472738;32;34213;-94
2022/09/29 05:01:45;;;;;;;;;;;;;;;21.78;47.36;97616.28;4468851;32;35280;-84
2022/09/29 05:04:12;;;;;;;;;;;;;;;21.77;47.21;97618.06;4468681;32;34338;-95
2022/09/29 05:06:39;;;;;;;;;;;;;;;21.59;47.87;97627.00;4442581;32;788824;-85
2022/09/29 05:09:07;;;;;;;;;;;;;;;21.56;47.84;97624.56;4467067;32;34113;-84
2022/09/29 05:11:34;;;;;;;;;;;;;;;21.60;47.93;97623.47;4470658;32;34377;-84
2022/09/29 05:14:01;;;;;;;;;;;;;;;20.36;50.96;97624.81;4470547;32;35281;-93
2022/09/29 05:16:29;;;;;;;;;;;;;;;20.20;51.70;97637.06;4469669;32;33768;-84
2022/09/29 05:18:56;;;;;;;;;;;;;;;19.50;54.02;97641.31;4453100;32;34969;-84
2022/09/29 05:21:23;;;;;;;;;;;;;;;20.61;51.00;97640.22;4467147;32;34192;-84
2022/09/29 05:23:55;;;;;;;;;;;;;;;20.74;50.42;97633.38;4473355;32;34474;-84
2022/09/29 05:26:22;;;;;;;;;;;;;;;21.02;49.83;97632.75;4471523;32;33721;-93
2022/09/29 05:28:50;;;;;;;;;;;;;;;20.39;51.29;97622.87;4471975;32;34298;-96
2022/09/29 05:31:17;;;;;;;;;;;;;;;19.92;52.60;97644.53;4467949;32;35205;-84
2022/09/29 05:33:45;;;;;;;;;;;;;;;20.06;52.29;97638.59;4468409;32;34444;-84
2022/09/29 05:36:12;;;;;;;;;;;;;;;20.49;51.36;97640.81;4470776;32;33725;-96
2022/09/29 05:38:39;;;;;;;;;;;;;;;21.18;49.58;97642.47;4481678;32;33973;-84
2022/09/29 05:41:10;;;;;;;;;;;;;;;21.40;49.01;97648.28;4467453;32;34488;-83
2022/09/29 05:43:38;;;;;;;;;;;;;;;21.62;48.38;97645.31;4456154;32;35478;-84
2022/09/29 05:46:07;;;;;;;;;;;;;;;21.56;48.21;97648.31;4475385;32;33227;-84
2022/09/29 05:48:34;;;;;;;;;;;;;;;21.81;47.69;97651.25;4467179;32;34174;-92
2022/09/29 05:51:15;;;;;;;;;;;;;;;21.35;48.70;97658.25;4453097;32;34354;-83
2022/09/29 05:53:49;;;;;;;;;;;;;;;20.42;51.11;97664.00;4462145;32;35053;-82
2022/09/29 05:56:18;;;;;;;;;;;;;;;20.45;51.08;97668.22;4473335;32;33161;-83
2022/09/29 05:58:45;;;;;;;;;;;;;;;19.39;53.81;97665.47;4473998;32;34035;-83
2022/09/29 06:01:19;;;;;;;;;;;;;;;20.08;51.96;97664.84;4480935;32;34413;-83
2022/09/29 06:03:47;;;;;;;;;;;;;;;20.58;50.76;97658.81;4464494;32;35327;-91
2022/09/29 06:06:15;;;;;;;;;;;;;;;20.51;50.92;97667.97;4472333;32;33337;-83
2022/09/29 06:08:43;;;;;;;;;;;;;;;20.25;51.50;97669.25;4454268;32;33856;-83
2022/09/29 06:11:18;;;;;;;;;;;;;;;20.15;51.61;97672.34;4469135;32;35357;-83
2022/09/29 06:13:47;;;;;;;;;;;;;;;20.81;49.95;97666.38;4470631;32;35020;-83
2022/09/29 06:16:15;;;;;;;;;;;;;;;20.04;52.05;97674.66;4460346;32;34257;-82
2022/09/29 06:18:42;;;;;;;;;;;;;;;19.26;53.63;97675.72;4466825;32;34200;-83
2022/09/29 06:21:11;;;;;;;;;;;;;;;19.89;52.09;97675.41;4484533;32;35186;-83
2022/09/29 06:23:38;;;;;;;;;;;;;;;19.69;52.50;97673.72;4468700;32;35214;-83
2022/09/29 06:26:06;;;;;;;;;;;;;;;19.20;53.50;97683.84;4461796;32;33444;-87
2022/09/29 06:28:33;;;;;;;;;;;;;;;18.95;54.17;97684.97;4469039;32;34044;-83
2022/09/29 06:31:02;;;;;;;;;;;;;;;18.56;54.55;97690.19;4479962;32;35364;-87
2022/09/29 06:33:30;;;;;;;;;;;;;;;19.59;51.96;97677.69;4474537;32;34469;-85
2022/09/29 06:38:44;;;;;;;;;;;;;;;19.00;53.49;97703.16;4468976;32;34322;-82
2022/09/29 06:41:11;;;;;;;;;;;;;;;18.75;54.22;97699.91;4458938;32;34583;-83
2022/09/29 06:43:38;;;;;;;;;;;;;;;18.87;53.54;97702.00;4470843;32;34892;-82
2022/09/29 06:46:06;;;;;;;;;;;;;;;19.02;52.98;97708.34;4475761;32;34380;-82
2022/09/29 06:48:33;;;;;;;;;;;;;;;19.37;52.04;97710.22;4483524;32;35027;-83
2022/09/29 06:51:00;;;;;;;;;;;;;;;18.41;54.02;97710.06;4484237;32;34215;-82
2022/09/29 06:53:36;;;;;;;;;;;;;;;18.40;54.60;97707.47;4483971;32;34282;-83
2022/09/29 06:56:05;;;;;;;;;;;;;;;18.13;55.53;97706.84;4484126;32;33296;-83
2022/09/29 06:58:32;;;;;;;;;;;;;;;18.61;54.58;97705.72;4484190;32;33802;-83
2022/09/29 07:01:00;;;;;;;;;;;;;;;17.59;56.92;97697.63;4484529;32;33667;-83
2022/09/29 07:03:28;;;;;;;;;;;;;;;18.45;54.73;97708.16;4471093;32;35354;-84
2022/09/29 07:05:56;;;;;;;;;;;;;;;18.35;55.24;97715.53;4485772;32;34263;-84
2022/09/29 07:08:44;;;;;;;;;;;;;;;18.19;56.35;97722.34;4474255;32;35047;-84
2022/09/29 07:11:11;;;;;;;;;;;;;;;17.87;57.00;97729.72;4484750;32;34506;-84
2022/09/29 07:13:38;;;;;;;;;;;;;;;18.44;55.03;97723.03;4484762;32;34019;-85
2022/09/29 07:16:06;;;;;;;;;;;;;;;17.90;56.96;97731.38;4484818;32;34263;-85
2022/09/29 07:18:34;;;;;;;;;;;;;;;18.37;55.41;97718.97;4483936;32;33866;-89
2022/09/29 07:21:01;;;;;;;;;;;;;;;17.55;57.78;97724.88;4470968;32;34238;-95
2022/09/29 07:23:28;;;;;;;;;;;;;;;17.60;57.58;97722.91;4483861;32;34325;-84
2022/09/29 07:25:55;;;;;;;;;;;;;;;17.06;59.36;97722.31;4470109;32;34251;-85
2022/09/29 07:28:23;;;;;;;;;;;;;;;17.60;57.48;97736.87;4484296;32;34832;-84
2022/09/29 07:30:59;;;;;;;;;;;;;;;17.47;57.97;97733.88;4485082;32;35194;-85
2022/09/29 07:33:40;;;;;;;;;;;;;;;17.79;58.14;97731.81;4484708;32;35253;-84
2022/09/29 07:36:08;;;;;;;;;;;;;;;17.41;59.40;97734.09;4485231;32;33616;-85
2022/09/29 07:38:35;;;;;;;;;;;;;;;18.03;57.84;97743.06;4484793;32;34115;-84
2022/09/29 07:41:03;;;;;;;;;;;;;;;17.89;58.45;97748.88;4486482;32;34114;-85
2022/09/29 07:43:31;;;;;;;;;;;;;;;18.12;57.63;97752.37;4472728;32;35162;-85
2022/09/29 07:46:01;;;;;;;;;;;;;;;18.37;57.26;97755.72;4471779;32;33699;-85
2022/09/29 07:48:29;;;;;;;;;;;;;;;18.52;56.81;97756.81;4486490;32;34795;-84
2022/09/29 07:51:01;;;;;;;;;;;;;;;18.43;57.01;97757.22;4486179;32;34805;-96
2022/09/29 07:53:29;;;;;;;;;;;;;;;18.40;56.85;97759.97;4484998;32;35323;-84
2022/09/29 07:56:01;;;;;;;;;;;;;;;18.08;57.62;97767.37;4485102;32;33832;-84
2022/09/29 07:58:31;;;;;;;;;;;;;;;18.12;58.33;97765.47;4484029;32;34642;-85
2022/09/29 08:00:58;;;;;;;;;;;;;;;19.33;54.29;97760.37;4485275;32;33714;-85
2022/09/29 08:03:26;;;;;;;;;;;;;;;19.66;52.82;97753.59;4484310;32;34659;-85
2022/09/29 08:05:53;;;;;;;;;;;;;;;18.96;54.67;97762.00;4484551;32;33302;-84
2022/09/29 08:08:20;;;;;;;;;;;;;;;18.34;56.63;97755.84;4469826;32;34099;-85
2022/09/29 08:10:48;;;;;;;;;;;;;;;18.78;55.93;97763.62;4484721;32;35308;-84
2022/09/29 08:13:19;;;;;;;;;;;;;;;17.91;58.24;97764.53;4470345;32;34063;-93
2022/09/29 08:15:46;;;;;;;;;;;;;;;18.27;57.38;97761.38;4483656;32;33629;-85
2022/09/29 08:18:14;;;;;;;;;;;;;;;18.85;56.07;97765.06;4485666;32;33915;-87
2022/09/29 08:20:41;;;;;;;;;;;;;;;18.16;57.69;97773.16;4484735;32;34399;-85
2022/09/29 08:23:08;;;;;;;;;;;;;;;18.50;56.83;97770.94;4484745;32;34463;-84
2022/09/29 08:25:35;;;;;;;;;;;;;;;19.45;53.72;97771.16;4483913;32;33107;-85
2022/09/29 08:28:02;;;;;;;;;;;;;;;19.52;53.69;97771.75;4484694;32;33638;-85
2022/09/29 08:30:30;;;;;;;;;;;;;;;19.19;55.92;97774.97;4485482;32;35061;-84
2022/09/29 08:32:57;;;;;;;;;;;;;;;18.59;57.37;97788.91;4485316;32;34290;-84
2022/09/29 08:35:24;;;;;;;;;;;;;;;18.63;57.34;97782.63;4484518;32;33398;-96
2022/09/29 08:37:54;;;;;;;;;;;;;;;19.60;54.84;97785.41;4485720;32;35082;-85
2022/09/29 08:40:21;;;;;;;;;;;;;;;18.90;55.77;97786.75;4484766;32;34411;-92
2022/09/29 08:42:48;;;;;;;;;;;;;;;19.20;55.42;97773.19;4469589;32;35123;-85
2022/09/29 08:45:22;;;;;;;;;;;;;;;19.20;55.19;97770.56;4484572;32;34330;-85
2022/09/29 08:47:50;;;;;;;;;;;;;;;20.20;52.64;97774.72;4457719;32;33890;-85
2022/09/29 08:50:30;;;;;;;;;;;;;;;20.14;53.31;97775.03;4470158;32;35171;-85
2022/09/29 08:53:08;;;;;;;;;;;;;;;19.40;54.19;97773.16;4470769;32;34545;-85
2022/09/29 08:55:53;;;;;;;;;;;;;;;20.27;52.55;97781.41;4471950;32;33480;-86
2022/09/29 08:58:20;;;;;;;;;;;;;;;19.88;53.71;97790.25;4485004;32;34233;-84
2022/09/29 09:01:03;;;;;;;;;;;;;;;19.21;55.57;97803.81;4469388;32;34194;-85
2022/09/29 09:03:49;;;;;;;;;;;;;;;19.47;55.85;97799.16;4483708;32;34291;-86
2022/09/29 09:06:18;;;;;;;;;;;;;;;19.84;54.53;97799.22;4483965;32;33768;-84
2022/09/29 09:08:51;;;;;;;;;;;;;;;19.72;55.26;97794.53;4469738;32;34357;-86
2022/09/29 09:11:32;;;;;;;;;;;;;;;19.49;54.72;97807.84;4484303;32;34304;-85
2022/09/29 09:14:06;;;;;;;;;;;;;;;19.16;55.72;97808.41;4484547;32;33963;-85
2022/09/29 09:16:52;;;;;;;;;;;;;;;20.16;54.03;97794.22;4483737;32;34384;-85
2022/09/29 09:19:29;;;;;;;;;;;;;;;20.30;53.47;97799.66;4484248;32;34136;-96
2022/09/29 09:22:07;;;;;;;;;;;;;;;20.56;53.21;97802.84;4483742;32;34563;-85
2022/09/29 09:24:48;;;;;;;;;;;;;;;21.25;51.90;97823.94;4484136;32;35184;-85
2022/09/29 09:27:18;;;;;;;;;;;;;;;21.00;51.28;97815.56;4470968;32;34133;-85
2022/09/29 09:29:46;;;;;;;;;;;;;;;20.42;52.08;97820.16;4470080;32;33974;-87
2022/09/29 09:32:14;;;;;;;;;;;;;;;21.49;49.69;97813.91;4483481;32;35005;-87
2022/09/29 09:34:43;;;;;;;;;;;;;;;21.06;49.77;97823.16;4469095;32;35163;-84
2022/09/29 09:37:19;;;;;;;;;;;;;;;20.54;51.12;97817.88;4470866;32;33346;-84
2022/09/29 09:39:55;;;;;;;;;;;;;;;20.59;51.76;97818.50;4470151;32;34886;-85
2022/09/29 09:42:28;;;;;;;;;;;;;;;20.07;51.54;97819.19;4484308;32;34008;-88
2022/09/29 09:45:00;;;;;;;;;;;;;;;19.98;51.60;97821.41;4470421;32;35219;-93
2022/09/29 09:47:28;;;;;;;;;;;;;;;20.43;51.75;97828.91;4469832;32;33215;-89
2022/09/29 09:49:59;;;;;;;;;;;;;;;19.87;52.15;97824.53;4483923;32;34004;-84
2022/09/29 09:52:36;;;;;;;;;;;;;;;20.09;53.20;97827.03;4469702;32;34980;-86
2022/09/29 09:55:04;;;;;;;;;;;;;;;20.62;50.27;97823.63;4468781;32;34396;-87
2022/09/29 09:57:53;;;;;;;;;;;;;;;20.43;51.37;97823.63;4482719;32;34341;-84
2022/09/29 10:00:21;;;;;;;;;;;;;;;20.23;49.51;97819.31;4468477;32;33968;-84
2022/09/29 10:02:49;;;;;;;;;;;;;;;20.37;50.97;97819.50;4468588;32;35103;-85
2022/09/29 10:05:38;;;;;;;;;;;;;;;20.20;50.79;97819.47;4468231;32;34452;-84
2022/09/29 10:08:08;;;;;;;;;;;;;;;20.10;52.04;97820.81;4468650;32;34343;-85
2022/09/29 10:10:35;;;;;;;;;;;;;;;20.38;50.41;97815.09;4468009;32;34230;-85
2022/09/29 10:13:14;;;;;;;;;;;;;;;20.86;48.67;97819.75;4468479;32;35105;-85
2022/09/29 10:15:41;;;;;;;;;;;;;;;21.09;49.36;97825.62;4458970;32;34424;-92
2022/09/29 10:18:16;;;;;;;;;;;;;;;21.01;47.86;97819.91;4477787;32;33543;-84
2022/09/29 10:20:43;;;;;;;;;;;;;;;20.89;49.50;97816.97;4455930;32;34889;-93
2022/09/29 10:23:19;;;;;;;;;;;;;;;22.04;47.99;97820.63;4466982;32;34819;-93
2022/09/29 10:25:50;;;;;;;;;;;;;;;22.48;45.24;97827.88;4475951;32;33617;-86
2022/09/29 10:28:18;;;;;;;;;;;;;;;22.23;44.98;97823.13;4467049;32;33587;-90
2022/09/29 10:30:45;;;;;;;;;;;;;;;22.80;44.88;97826.84;4473786;32;34073;-95
2022/09/29 10:33:13;;;;;;;;;;;;;;;23.13;42.32;97823.22;4468455;32;33947;-96
2022/09/29 10:35:41;;;;;;;;;;;;;;;21.94;43.97;97828.19;4456388;32;35152;-96
2022/09/29 10:38:16;;;;;;;;;;;;;;;22.58;44.25;97824.62;4471486;31;33807;-86
2022/09/29 10:40:57;;;;;;;;;;;;;;;23.32;42.73;97828.25;4469818;32;32779;-93
2022/09/29 10:43:26;;;;;;;;;;;;;;;22.99;43.38;97826.66;4473614;32;33936;-86
2022/09/29 10:45:57;;;;;;;;;;;;;;;23.62;42.15;97817.59;4468361;32;33559;-94
2022/09/29 10:48:25;;;;;;;;;;;;;;;23.86;39.94;97819.69;4482362;32;33198;-94
2022/09/29 10:50:55;;;;;;;;;;;;;;;23.06;46.40;97832.44;4452491;32;34345;-96
2022/09/29 10:53:39;;;;;;;;;;;;;;;22.45;43.14;97828.03;4459888;32;34022;-86
2022/09/29 10:56:16;;;;;;;;;;;;;;;23.43;40.57;97832.91;4481712;32;33235;-93
2022/09/29 10:58:44;;;;;;;;;;;;;;;23.24;41.49;97831.34;4469044;32;33632;-94
2022/09/29 11:01:30;;;;;;;;;;;;;;;23.38;42.75;97840.28;4468027;32;34135;-84
2022/09/29 11:04:04;;;;;;;;;;;;;;;23.22;41.67;97840.31;4468517;32;34853;-92
2022/09/29 11:06:35;;;;;;;;;;;;;;;23.01;41.90;97840.66;4467057;32;34179;-94
2022/09/29 11:09:12;;;;;;;;;;;;;;;23.60;41.04;97827.44;4472418;32;33333;-93
2022/09/29 11:11:51;;;;;;;;;;;;;;;23.35;41.09;97836.00;4474072;32;34247;-88
2022/09/29 11:14:35;;;;;;;;;;;;;;;23.63;41.30;97835.16;4468530;32;35319;-86
2022/09/29 11:17:22;;;;;;;;;;;;;;;23.15;42.53;97849.59;4482409;32;34278;-85
2022/09/29 11:19:50;;;;;;;;;;;;;;;23.62;41.24;97838.75;4468430;32;33558;-93
2022/09/29 11:22:24;;;;;;;;;;;;;;;23.94;40.08;97838.59;4467389;32;33870;-94
2022/09/29 11:24:57;;;;;;;;;;;;;;;23.75;41.84;97844.16;4481680;32;34493;-84
2022/09/29 11:27:40;;;;;;;;;;;;;;;23.37;41.69;97849.13;4483768;32;35449;-93
2022/09/29 11:30:14;;;;;;;;;;;;;;;22.83;42.44;97852.25;4469908;32;33323;-85
2022/09/29 11:32:56;;;;;;;;;;;;;;;23.05;42.69;97843.97;4482263;32;34090;-91
2022/09/29 11:35:35;;;;;;;;;;;;;;;22.89;43.06;97841.34;4466522;32;33952;-85
2022/09/29 11:38:15;;;;;;;;;;;;;;;23.72;41.05;97837.28;4466889;32;34624;-84
2022/09/29 11:40:47;;;;;;;;;;;;;;;23.67;41.58;97836.72;4469833;32;34143;-85
2022/09/29 11:43:17;;;;;;;;;;;;;;;22.86;43.48;97841.53;4468765;32;35058;-92
2022/09/29 11:45:47;;;;;;;;;;;;;;;22.75;43.53;97851.84;4476753;32;34097;-95
2022/09/29 11:48:34;;;;;;;;;;;;;;;23.30;42.66;97841.59;4467316;32;34639;-94
2022/09/29 11:51:01;;;;;;;;;;;;;;;24.01;42.11;97842.56;4480905;32;33404;-92
2022/09/29 11:53:28;;;;;;;;;;;;;;;23.54;42.73;97851.63;4483702;32;33893;-85
2022/09/29 11:56:14;;;;;;;;;;;;;;;22.50;45.16;97858.56;4483905;32;35367;-92
2022/09/29 11:58:45;;;;;;;;;;;;;;;23.41;42.66;97862.09;4483720;32;34576;-93
2022/09/29 12:01:31;;;;;;;;;;;;;;;23.35;42.33;97856.31;4483786;32;33956;-94
2022/09/29 12:03:58;;;;;;;;;;;;;;;22.04;44.87;97865.47;4470954;32;34147;-84
2022/09/29 12:06:44;;;;;;;;;;;;;;;22.58;45.54;97866.03;4475517;32;34410;-94
2022/09/29 12:09:20;;;;;;;;;;;;;;;22.90;43.76;97864.19;4470562;32;34930;-94
2022/09/29 12:11:53;;;;;;;;;;;;;;;23.06;43.64;97862.38;4478823;32;33249;-85
2022/09/29 12:14:56;;;;;;;;;;;;;;;23.88;41.22;97850.41;4470060;32;34887;-85
2022/09/29 12:17:23;;;;;;;;;;;;;;;23.50;42.39;97847.47;4466202;32;33876;-85
2022/09/29 12:19:54;;;;;;;;;;;;;;;23.41;43.64;97848.88;4468057;32;34570;-90
2022/09/29 12:22:21;;;;;;;;;;;;;;;23.87;42.92;97854.03;4450803;32;34444;-93
2022/09/29 12:24:54;;;;;;;;;;;;;;;23.70;43.19;97854.19;4452376;32;34993;-84
2022/09/29 12:27:25;;;;;;;;;;;;;;;23.58;43.57;97857.56;4450800;32;34367;-83
2022/09/29 12:29:54;;;;;;;;;;;;;;;23.57;44.35;97855.88;4453095;32;34461;-95
2022/09/29 12:32:35;;;;;;;;;;;;;;;23.65;43.97;97845.66;4467940;32;33794;-85
2022/09/29 12:35:35;;;;;;;;;;;;;;;23.77;44.58;97845.78;4454836;32;33919;-94
2022/09/29 12:38:07;;;;;;;;;;;;;;;23.91;43.65;97859.97;4442425;32;33829;-96
2022/09/29 12:40:38;;;;;;;;;;;;;;;23.44;44.84;97874.25;4456496;32;34278;-96
2022/09/29 12:43:14;;;;;;;;;;;;;;;23.53;44.30;97884.31;4457265;32;33486;-92
2022/09/29 12:45:56;;;;;;;;;;;;;;;23.30;44.51;97897.13;4451160;32;35028;-95
2022/09/29 12:48:26;;;;;;;;;;;;;;;23.64;43.82;97895.09;4453562;32;34518;-96
2022/09/29 12:51:17;;;;;;;;;;;;;;;23.57;44.13;97899.06;4453917;32;34405;-96
2022/09/29 12:53:50;;;;;;;;;;;;;;;24.01;42.38;97888.41;4462236;32;33454;-94
2022/09/29 12:56:24;;;;;;;;;;;;;;;23.72;43.40;97899.97;4451196;32;34205;-96
2022/09/29 12:58:53;;;;;;;;;;;;;;;23.89;43.29;97898.91;4450682;32;35271;-83
2022/09/29 13:01:26;;;;;;;;;;;;;;;23.08;46.85;97901.94;4464148;32;34020;-85
2022/09/29 13:04:03;;;;;;;;;;;;;;;23.83;42.86;97891.34;4460430;32;33672;-92
2022/09/29 13:06:34;;;;;;;;;;;;;;;23.36;44.41;97885.31;4467661;32;33988;-84
2022/09/29 13:09:05;;;;;;;;;;;;;;;22.94;44.74;97883.38;4467346;32;34371;-84
2022/09/29 13:11:58;;;;;;;;;;;;;;;23.03;44.28;97889.00;4467655;32;34427;-84
2022/09/29 13:14:25;;;;;;;;;;;;;;;22.99;44.78;97881.31;4443398;32;33151;-85
2022/09/29 13:16:53;;;;;;;;;;;;;;;22.69;46.21;97878.62;4455583;32;35274;-85
2022/09/29 13:19:20;;;;;;;;;;;;;;;22.38;45.05;97874.22;4451488;32;35163;-91
2022/09/29 13:22:13;;;;;;;;;;;;;;;23.40;43.49;97883.31;4451231;32;34316;-95
2022/09/29 13:24:43;;;;;;;;;;;;;;;22.74;44.39;97890.66;4452036;32;34411;-93